Route Details

Aircraft Information
Group: North America Fleet
Types: B738, B752, B762, B763
Route Data
Distance: 112nm
Duration: 1h 00m
Origin METAR: KPDX 181653Z 06004KT 10SM FEW120 BKN170 BKN230 24/19 A2993 RMK AO2 SLP133 ACC ALQDS T02440189
Dest. METAR: KSEA 181653Z VRB03KT 10SM BKN160 BKN200 25/16 A2994 RMK AO2 SLP141 VIRGA T02500161
Freight Data
(for Aug 18, 2022)
Load Factor:
35%
Manifested Cargo: 36,966lbs
Financial History
Total Freight: 875,626lbs
Average Load: 0lbs/flt
Fuel Used: 68,014lbs
Avg. Fuel Used: 0lbs/flt
Fuel Expense: $57,641
Avg. Fuel Expense: $0
Avg. Fuel Cost: $0/lbs
Total Gross Income: $1,202,810
Pilot Pay: $1,881
Total Expenses: $148,008
Total Revenue: $995,557
Average Revenue: $0

Capitol Logistics 384




KPDX
Portland International Airport
Portland, Oregon
KSEA
Seattle-Tacoma International Airport
Seattle, Washington

Activity Log

Date Flight Route Aircraft Duration
08/04/2022 CPX384 DCT COUGA DCT KRIEG HAWKZ7 B763 0h 50m
10/06/2020 CPX362 COUGA KRIEG HAWKZ7 B763 0h 38m
08/26/2020 CPX362 COUGA KRIEG HAWKZ7 B763 1h 10m
06/19/2019 CPX362 COUGA KRIEG HAWKZ7 B763 0h 43m
03/21/2019 CPX362 COUGA KRIEG HAWKZ7 B763 0h 39m
03/06/2019 CPX362 COUGA KRIEG HAWKZ7 B763 0h 40m
01/31/2019 CPX362 COUGA KRIEG HAWKZ7 B763 0h 47m
01/31/2019 CPX362 COUGA KRIEG HAWKZ7 B763 0h 43m
01/28/2019 CPX362 COUGA KRIEG HAWKZ7 B763 0h 41m